createdAt,value
2023-03-07T00:00:17.786Z,76961.84
2023-03-07T00:03:05.720Z,76949.69
2023-03-07T00:05:33.387Z,76949.69
2023-03-07T00:08:00.603Z,76949.69
2023-03-07T00:10:28.055Z,76961.84
2023-03-07T00:12:55.172Z,76963.88
2023-03-07T00:15:22.874Z,76965.91
2023-03-07T00:17:50.506Z,76965.91
2023-03-07T00:20:17.896Z,76969.94
2023-03-07T00:22:46.938Z,76974.00
2023-03-07T00:25:17.697Z,76974.00
2023-03-07T00:27:46.548Z,76976.03
2023-03-07T00:30:13.758Z,76984.16
2023-03-07T00:32:41.420Z,76978.06
2023-03-07T00:35:08.800Z,76969.94
2023-03-07T00:37:35.986Z,76974.00
2023-03-07T00:40:04.045Z,76969.94
2023-03-07T00:42:31.401Z,76978.06
2023-03-07T00:44:58.227Z,76969.94
2023-03-07T00:47:25.748Z,76961.84
2023-03-07T00:49:53.561Z,76965.91
2023-03-07T00:52:21.122Z,76965.91
2023-03-07T00:54:48.275Z,76967.94
2023-03-07T00:57:15.760Z,76969.94
2023-03-07T00:59:42.858Z,76965.91
2023-03-07T01:02:10.634Z,76969.94
2023-03-07T01:04:37.869Z,76969.94
2023-03-07T01:07:05.270Z,76971.97
2023-03-07T01:09:32.829Z,76974.00
2023-03-07T01:12:00.464Z,76984.16
2023-03-07T01:14:27.553Z,76986.16
2023-03-07T01:16:55.120Z,76990.22
2023-03-07T01:19:22.974Z,76980.09
2023-03-07T01:21:51.470Z,76982.13
2023-03-07T01:24:18.499Z,76974.00
2023-03-07T01:26:46.209Z,76994.28
2023-03-07T01:29:13.421Z,77000.38
2023-03-07T01:31:41.108Z,77006.44
2023-03-07T01:34:08.625Z,77006.44
2023-03-07T01:36:37.956Z,77018.63
2023-03-07T01:39:14.302Z,77022.66
2023-03-07T01:41:49.585Z,77026.72
2023-03-07T01:44:18.406Z,77028.75
2023-03-07T01:46:49.081Z,77036.84
2023-03-07T01:49:22.203Z,77051.06
2023-03-07T01:52:08.381Z,77059.16
2023-03-07T01:54:41.564Z,77075.38
2023-03-07T01:57:09.568Z,77081.47
2023-03-07T01:59:43.378Z,77069.28
2023-03-07T02:02:14.322Z,77083.50
2023-03-07T02:04:47.319Z,77091.59
2023-03-07T02:07:16.492Z,77103.75
2023-03-07T02:09:48.238Z,77111.88
2023-03-07T02:12:15.831Z,77119.97
2023-03-07T02:14:45.765Z,77128.09
2023-03-07T02:17:13.384Z,77128.09
2023-03-07T02:20:22.269Z,77138.22
2023-03-07T02:22:50.411Z,77140.25
2023-03-07T02:25:30.005Z,77148.38
2023-03-07T02:27:59.166Z,77150.41
2023-03-07T02:30:26.743Z,77156.47
2023-03-07T02:32:55.007Z,77156.47
2023-03-07T02:35:25.581Z,77156.47
2023-03-07T02:38:03.260Z,77162.56
2023-03-07T02:40:32.752Z,77160.53
2023-03-07T02:43:09.739Z,77172.69
2023-03-07T02:45:39.924Z,77168.63
2023-03-07T02:48:07.134Z,77172.69
2023-03-07T02:50:35.445Z,77180.81
2023-03-07T02:53:02.703Z,77176.75
2023-03-07T02:55:30.348Z,77182.84
2023-03-07T02:58:02.463Z,77180.81
2023-03-07T03:00:30.226Z,77180.81
2023-03-07T03:02:57.389Z,77184.84
2023-03-07T03:05:24.438Z,77184.84
2023-03-07T03:07:53.154Z,77192.97
2023-03-07T03:10:20.097Z,77186.88
2023-03-07T03:12:48.073Z,77195.00
2023-03-07T03:15:16.242Z,77192.97
2023-03-07T03:17:44.423Z,77192.97
2023-03-07T03:20:12.863Z,77199.06
2023-03-07T03:22:41.394Z,77201.06
2023-03-07T03:25:11.917Z,77213.25
2023-03-07T03:27:41.985Z,77201.06
2023-03-07T03:30:12.785Z,77205.13
2023-03-07T03:32:41.476Z,77213.25
2023-03-07T03:35:11.290Z,77217.28
2023-03-07T03:37:39.533Z,77225.41
2023-03-07T03:40:14.363Z,77225.41
2023-03-07T03:42:44.561Z,77225.41
2023-03-07T03:45:17.505Z,77233.53
2023-03-07T03:47:45.239Z,77241.63
2023-03-07T03:50:12.585Z,77241.63
2023-03-07T03:52:41.159Z,77249.75
2023-03-07T03:55:09.383Z,77257.84
2023-03-07T03:57:36.841Z,77249.75
2023-03-07T04:00:05.815Z,77255.81
2023-03-07T04:02:39.797Z,77265.97
2023-03-07T04:05:11.566Z,77257.84
2023-03-07T04:07:39.313Z,77265.97
2023-03-07T04:10:06.747Z,77253.78
2023-03-07T04:12:34.219Z,77247.72
2023-03-07T04:15:01.438Z,77245.69
2023-03-07T04:17:28.699Z,77233.53
2023-03-07T04:19:55.878Z,77225.41
2023-03-07T04:22:23.830Z,77217.28
2023-03-07T04:24:50.676Z,77221.34
2023-03-07T04:27:18.336Z,77213.25
2023-03-07T04:29:45.552Z,77211.22
2023-03-07T04:32:17.944Z,77221.34
2023-03-07T04:34:45.866Z,77225.41
2023-03-07T04:37:13.289Z,77221.34
2023-03-07T04:39:40.424Z,77217.28
2023-03-07T04:42:10.073Z,77221.34
2023-03-07T04:44:37.659Z,77221.34
2023-03-07T04:47:05.096Z,77225.41
2023-03-07T04:49:34.744Z,77219.31
2023-03-07T04:52:04.614Z,77229.47
2023-03-07T04:54:32.389Z,77225.41
2023-03-07T04:57:01.665Z,77235.53
2023-03-07T04:59:28.845Z,77221.34
2023-03-07T05:01:56.479Z,77225.41
2023-03-07T05:04:23.741Z,77231.50
2023-03-07T05:06:51.659Z,77225.41
2023-03-07T05:09:19.010Z,77221.34
2023-03-07T05:11:47.117Z,77217.28
2023-03-07T05:14:14.062Z,77221.34
2023-03-07T05:16:42.440Z,77225.41
2023-03-07T05:19:10.346Z,77229.47
2023-03-07T05:21:39.950Z,77229.47
2023-03-07T05:24:07.922Z,77217.28
2023-03-07T05:26:36.428Z,77213.25
2023-03-07T05:29:04.182Z,77217.28
2023-03-07T05:31:31.434Z,77221.34
2023-03-07T05:33:59.035Z,77235.53
2023-03-07T05:36:26.294Z,77227.44
2023-03-07T05:38:56.318Z,77225.41
2023-03-07T05:41:24.611Z,77225.41
2023-03-07T05:43:51.505Z,77209.19
2023-03-07T05:46:18.931Z,77205.13
2023-03-07T05:48:46.052Z,77190.94
2023-03-07T05:51:13.611Z,77188.91
2023-03-07T05:53:41.474Z,77180.81
2023-03-07T05:56:09.245Z,77176.75
2023-03-07T05:58:37.971Z,77172.69
2023-03-07T06:01:05.878Z,77172.69
2023-03-07T06:03:33.626Z,77176.75
2023-03-07T06:06:01.026Z,77176.75
2023-03-07T06:08:28.341Z,77164.59
2023-03-07T06:10:55.514Z,77152.41
2023-03-07T06:13:25.275Z,77144.31
2023-03-07T06:15:54.140Z,77136.19
2023-03-07T06:18:24.182Z,77119.97
2023-03-07T06:20:59.747Z,77119.97
2023-03-07T06:23:31.699Z,77119.97
2023-03-07T06:26:00.908Z,77140.25
2023-03-07T06:28:28.547Z,77164.59
2023-03-07T06:30:56.117Z,77162.56
2023-03-07T06:33:23.819Z,77144.31
2023-03-07T06:35:54.371Z,77128.09
2023-03-07T06:38:21.399Z,77107.81
2023-03-07T06:40:56.546Z,77103.75
2023-03-07T06:43:24.020Z,77091.59
2023-03-07T06:45:51.454Z,77079.44
2023-03-07T06:48:19.090Z,77119.97
2023-03-07T06:50:46.989Z,77097.69
2023-03-07T06:53:14.253Z,77107.81
2023-03-07T06:55:41.594Z,77095.66
2023-03-07T06:58:11.692Z,77075.38
2023-03-07T07:00:39.134Z,77059.16
2023-03-07T07:03:06.473Z,77051.06
2023-03-07T07:05:34.073Z,77042.94
2023-03-07T07:08:01.067Z,77028.75
2023-03-07T07:10:29.805Z,77022.66
2023-03-07T07:12:58.062Z,76990.22
2023-03-07T07:15:26.870Z,76957.78
2023-03-07T07:17:55.297Z,76949.69
2023-03-07T07:20:24.269Z,76945.63
2023-03-07T07:22:51.386Z,76913.19
2023-03-07T07:25:20.088Z,76901.03
2023-03-07T07:27:47.744Z,76884.81
2023-03-07T07:30:15.230Z,76894.94
2023-03-07T07:32:42.425Z,76882.78
2023-03-07T07:35:10.226Z,76892.91
2023-03-07T07:37:37.598Z,76888.88
2023-03-07T07:40:05.440Z,76901.03
2023-03-07T07:42:32.521Z,76896.97
2023-03-07T07:45:11.569Z,76888.88
2023-03-07T07:47:39.030Z,76888.88
2023-03-07T07:50:06.774Z,76878.72
2023-03-07T07:52:35.282Z,76872.66
2023-03-07T07:55:02.609Z,76888.88
2023-03-07T07:57:29.877Z,76872.66
2023-03-07T07:59:58.959Z,76856.44
2023-03-07T08:02:25.980Z,76848.31
2023-03-07T08:04:53.305Z,76832.09
2023-03-07T08:07:20.698Z,76824.00
2023-03-07T08:09:48.053Z,76824.00
2023-03-07T08:12:15.396Z,76807.78
2023-03-07T08:14:42.786Z,76795.59
2023-03-07T08:17:10.100Z,76799.66
2023-03-07T08:19:37.306Z,76787.50
2023-03-07T08:22:04.507Z,76771.28
2023-03-07T08:24:40.696Z,76783.44
2023-03-07T08:27:08.759Z,76755.06
2023-03-07T08:29:35.956Z,76730.75
2023-03-07T08:32:03.864Z,76722.63
2023-03-07T08:34:33.697Z,76714.53
2023-03-07T08:37:00.744Z,76690.19
2023-03-07T08:39:27.992Z,76649.66
2023-03-07T08:41:56.905Z,76633.44
2023-03-07T08:44:24.342Z,76629.38
2023-03-07T08:46:51.585Z,76641.53
2023-03-07T08:49:19.142Z,76629.38
2023-03-07T08:51:50.464Z,76609.09
2023-03-07T08:54:18.293Z,76601.00
2023-03-07T08:56:45.270Z,76609.09
2023-03-07T08:59:12.809Z,76601.00
2023-03-07T09:01:41.153Z,76580.72
2023-03-07T09:04:09.656Z,76564.50
2023-03-07T09:06:36.848Z,76552.34
2023-03-07T09:09:06.008Z,76528.03
2023-03-07T09:11:33.267Z,76511.81
2023-03-07T09:14:00.708Z,76479.38
2023-03-07T09:16:28.133Z,76438.84
2023-03-07T09:18:55.320Z,76432.75
2023-03-07T09:21:22.398Z,76430.72
2023-03-07T09:23:49.743Z,76422.63
2023-03-07T09:26:16.876Z,76402.34
2023-03-07T09:28:44.362Z,76406.41
2023-03-07T09:31:13.960Z,76410.47
2023-03-07T09:33:41.801Z,76390.19
2023-03-07T09:36:10.956Z,76365.88
2023-03-07T09:38:39.006Z,76345.59
2023-03-07T09:41:27.675Z,76329.38
2023-03-07T09:44:24.082Z,76325.31
2023-03-07T09:47:34.764Z,76321.28
2023-03-07T09:50:10.066Z,76329.38
2023-03-07T09:52:39.700Z,76321.28
2023-03-07T09:55:19.274Z,76313.16
2023-03-07T09:58:05.184Z,76301.00
2023-03-07T10:00:38.380Z,76298.97
2023-03-07T10:03:45.532Z,76282.75
2023-03-07T10:06:30.672Z,76248.31
2023-03-07T10:08:59.853Z,76223.97
2023-03-07T10:11:46.346Z,76228.03
2023-03-07T10:14:41.482Z,76195.59
2023-03-07T10:17:47.135Z,76195.59
2023-03-07T10:20:35.761Z,76211.81
2023-03-07T10:23:26.530Z,76205.75
2023-03-07T10:26:02.225Z,76191.56
2023-03-07T10:28:32.812Z,76179.38
2023-03-07T10:31:13.893Z,76179.38
2023-03-07T10:33:45.187Z,76181.41
2023-03-07T10:36:35.571Z,76183.44
2023-03-07T10:39:24.795Z,76187.50
2023-03-07T10:41:52.867Z,76199.66
2023-03-07T10:44:21.956Z,76211.81
2023-03-07T10:46:56.651Z,76211.81
2023-03-07T10:49:28.192Z,76167.22
2023-03-07T10:52:12.984Z,76142.91
2023-03-07T10:54:40.632Z,76100.34
2023-03-07T10:57:12.769Z,76067.91
2023-03-07T10:59:43.759Z,76059.81
2023-03-07T11:02:28.760Z,76061.84
2023-03-07T11:04:56.907Z,76041.56
2023-03-07T11:07:28.726Z,76025.34
2023-03-07T11:09:58.339Z,76005.09
2023-03-07T11:12:29.245Z,75984.81
2023-03-07T11:15:08.860Z,75986.84
2023-03-07T11:17:47.833Z,75964.56
2023-03-07T11:20:20.402Z,75946.31
2023-03-07T11:22:47.990Z,75964.56
2023-03-07T11:25:23.005Z,75972.66
2023-03-07T11:27:52.669Z,75980.75
2023-03-07T11:30:20.105Z,75956.44
2023-03-07T11:32:53.849Z,75944.28
2023-03-07T11:35:32.675Z,75928.06
2023-03-07T11:38:19.513Z,75924.00
2023-03-07T11:40:53.921Z,75911.84
2023-03-07T11:43:27.634Z,75924.00
2023-03-07T11:46:16.254Z,75899.69
2023-03-07T11:48:55.723Z,75875.38
2023-03-07T11:51:32.263Z,75842.94
2023-03-07T11:54:28.805Z,75806.47
2023-03-07T11:57:06.289Z,75786.19
2023-03-07T12:00:00.838Z,75782.16
2023-03-07T12:03:03.866Z,75782.16
2023-03-07T12:05:57.880Z,75786.19
2023-03-07T12:08:40.262Z,75784.19
2023-03-07T12:11:24.839Z,75782.16
2023-03-07T12:14:26.177Z,75774.03
2023-03-07T12:17:18.281Z,75765.94
2023-03-07T12:19:57.666Z,75765.94
2023-03-07T12:22:56.902Z,75741.63
2023-03-07T12:25:40.157Z,75751.75
2023-03-07T12:28:28.172Z,75741.63
2023-03-07T12:31:17.770Z,75721.34
2023-03-07T12:34:06.413Z,75697.03
2023-03-07T12:36:44.709Z,75684.88
2023-03-07T12:39:30.100Z,75672.72
2023-03-07T12:41:57.620Z,75662.59
2023-03-07T12:44:41.106Z,75648.41
2023-03-07T12:47:35.698Z,75644.34
2023-03-07T12:50:15.380Z,75632.19
2023-03-07T12:52:56.902Z,75638.25
2023-03-07T12:55:44.044Z,75652.44
2023-03-07T12:58:49.310Z,75652.44
2023-03-07T13:01:23.560Z,75640.28
2023-03-07T13:03:53.871Z,75628.13
2023-03-07T13:06:22.804Z,75611.91
2023-03-07T13:08:53.420Z,75615.97
2023-03-07T13:11:26.411Z,75611.91
2023-03-07T13:13:57.182Z,75624.06
2023-03-07T13:16:38.614Z,75624.06
2023-03-07T13:19:30.962Z,75630.16
2023-03-07T13:21:58.510Z,75640.28
2023-03-07T13:24:38.897Z,75658.53
2023-03-07T13:27:21.213Z,75664.59
2023-03-07T13:30:10.689Z,75668.66
2023-03-07T13:32:54.243Z,75670.69
2023-03-07T13:35:24.621Z,75680.81
2023-03-07T13:37:54.604Z,75680.81
2023-03-07T13:40:27.588Z,75684.88
2023-03-07T13:42:55.348Z,75686.91
2023-03-07T13:45:54.477Z,75692.97
2023-03-07T13:48:28.241Z,75697.03
2023-03-07T13:50:56.082Z,75692.97
2023-03-07T13:53:34.369Z,75692.97
2023-03-07T13:56:17.322Z,75697.03
2023-03-07T13:58:52.483Z,75697.03
2023-03-07T14:01:23.404Z,75697.03
2023-03-07T14:04:05.009Z,75684.88
2023-03-07T14:06:39.311Z,75703.13
2023-03-07T14:09:11.855Z,75697.03
2023-03-07T14:12:16.987Z,75697.03
2023-03-07T14:15:02.878Z,75705.13
2023-03-07T14:17:42.679Z,75701.09
2023-03-07T14:20:32.303Z,75697.03
2023-03-07T14:23:50.237Z,75692.97
2023-03-07T14:26:21.649Z,75680.81
2023-03-07T14:29:01.633Z,75668.66
2023-03-07T14:31:39.002Z,75664.59
2023-03-07T14:34:21.609Z,75664.59
2023-03-07T14:37:10.260Z,75672.72
2023-03-07T14:39:56.986Z,75686.91
2023-03-07T14:42:48.603Z,75682.84
2023-03-07T14:45:35.901Z,75684.88
2023-03-07T14:48:16.612Z,75684.88
2023-03-07T14:50:45.014Z,75680.81
2023-03-07T14:53:20.614Z,75684.88
2023-03-07T14:55:51.455Z,75684.88
2023-03-07T14:58:35.061Z,75688.94
2023-03-07T15:01:12.170Z,75684.88
2023-03-07T15:03:49.980Z,75680.81
2023-03-07T15:06:21.861Z,75684.88
2023-03-07T15:08:49.696Z,75688.94
2023-03-07T15:11:35.557Z,75684.88
2023-03-07T15:14:08.062Z,75684.88
2023-03-07T15:16:55.746Z,75692.97
2023-03-07T15:19:38.525Z,75697.03
2023-03-07T15:22:19.249Z,75697.03
2023-03-07T15:24:49.783Z,75692.97
2023-03-07T15:27:22.712Z,75695.00
2023-03-07T15:29:50.455Z,75701.09
2023-03-07T15:32:37.773Z,75701.09
2023-03-07T15:35:08.357Z,75697.03
2023-03-07T15:37:51.402Z,75701.09
2023-03-07T15:40:22.430Z,75692.97
2023-03-07T15:43:11.443Z,75688.94
2023-03-07T15:45:40.868Z,75692.97
2023-03-07T15:48:23.288Z,75692.97
2023-03-07T15:50:56.712Z,75697.03
2023-03-07T15:53:33.750Z,75697.03
2023-03-07T15:56:05.151Z,75701.09
2023-03-07T15:58:34.699Z,75701.09
2023-03-07T16:01:05.579Z,75705.13
2023-03-07T16:03:33.805Z,75709.19
2023-03-07T16:06:02.406Z,75709.19
2023-03-07T16:08:30.014Z,75713.25
2023-03-07T16:11:03.745Z,75709.19
2023-03-07T16:13:41.681Z,75709.19
2023-03-07T16:16:13.149Z,75709.19
2023-03-07T16:18:42.068Z,75715.28
2023-03-07T16:21:14.618Z,75713.25
2023-03-07T16:23:43.261Z,75713.25
2023-03-07T16:26:29.292Z,75715.28
2023-03-07T16:29:00.094Z,75725.41
2023-03-07T16:31:27.600Z,75733.50
2023-03-07T16:33:56.029Z,75733.50
2023-03-07T16:36:23.122Z,75729.47
2023-03-07T16:38:50.975Z,75737.56
2023-03-07T16:41:20.764Z,75729.47
2023-03-07T16:43:57.360Z,75737.56
2023-03-07T16:46:25.873Z,75741.63
2023-03-07T16:48:53.970Z,75737.56
2023-03-07T16:51:23.380Z,75733.50
2023-03-07T16:53:52.150Z,75737.56
2023-03-07T16:56:25.167Z,75735.53
2023-03-07T16:58:54.091Z,75735.53
2023-03-07T17:01:21.122Z,75735.53
2023-03-07T17:03:48.700Z,75737.56
2023-03-07T17:06:16.834Z,75741.63
2023-03-07T17:08:45.275Z,75745.66
2023-03-07T17:11:25.131Z,75741.63
2023-03-07T17:13:55.636Z,75745.66
2023-03-07T17:16:24.878Z,75745.66
2023-03-07T17:18:52.035Z,75749.72
2023-03-07T17:21:21.782Z,75745.66
2023-03-07T17:23:49.913Z,75745.66
2023-03-07T17:26:35.528Z,75741.63
2023-03-07T17:29:07.510Z,75737.56
2023-03-07T17:31:34.966Z,75735.53
2023-03-07T17:34:02.123Z,75737.56
2023-03-07T17:36:31.588Z,75733.50
2023-03-07T17:38:59.258Z,75737.56
2023-03-07T17:41:26.102Z,75737.56
2023-03-07T17:43:53.782Z,75729.47
2023-03-07T17:46:20.799Z,75733.50
2023-03-07T17:48:48.354Z,75731.47
2023-03-07T17:51:15.407Z,75741.63
2023-03-07T17:53:42.849Z,75725.41
2023-03-07T17:56:13.190Z,75725.41
2023-03-07T17:58:40.968Z,75721.34
2023-03-07T18:01:08.863Z,75725.41
2023-03-07T18:03:37.166Z,75725.41
2023-03-07T18:06:05.655Z,75717.28
2023-03-07T18:08:33.570Z,75725.41
2023-03-07T18:11:04.222Z,75719.31
2023-03-07T18:13:32.397Z,75721.34
2023-03-07T18:15:59.845Z,75723.38
2023-03-07T18:18:29.928Z,75715.28
2023-03-07T18:21:01.958Z,75725.41
2023-03-07T18:23:29.163Z,75717.28
2023-03-07T18:25:57.807Z,75721.34
2023-03-07T18:28:26.430Z,75717.28
2023-03-07T18:31:17.815Z,75721.34
2023-03-07T18:33:47.812Z,75709.19
2023-03-07T18:36:15.683Z,75717.28
2023-03-07T18:38:43.323Z,75713.25
2023-03-07T18:41:13.888Z,75711.22
2023-03-07T18:43:42.157Z,75707.16
2023-03-07T18:46:15.899Z,75709.19
2023-03-07T18:48:45.163Z,75709.19
2023-03-07T18:51:15.696Z,75713.25
2023-03-07T18:53:43.480Z,75713.25
2023-03-07T18:56:17.493Z,75709.19
2023-03-07T18:58:45.492Z,75709.19
2023-03-07T19:01:21.197Z,75711.22
2023-03-07T19:03:51.118Z,75705.13
2023-03-07T19:06:21.248Z,75697.03
2023-03-07T19:08:48.830Z,75697.03
2023-03-07T19:11:16.259Z,75680.81
2023-03-07T19:13:44.364Z,75684.88
2023-03-07T19:16:20.162Z,75684.88
2023-03-07T19:18:47.651Z,75688.94
2023-03-07T19:21:18.125Z,75688.94
2023-03-07T19:23:46.253Z,75684.88
2023-03-07T19:26:16.756Z,75680.81
2023-03-07T19:28:46.679Z,75664.59
2023-03-07T19:31:27.943Z,75670.69
2023-03-07T19:33:55.885Z,75660.56
2023-03-07T19:36:27.179Z,75652.44
2023-03-07T19:38:58.972Z,75652.44
2023-03-07T19:41:29.101Z,75652.44
2023-03-07T19:43:58.317Z,75644.34
2023-03-07T19:46:25.336Z,75652.44
2023-03-07T19:48:53.599Z,75642.31
2023-03-07T19:51:23.100Z,75640.28
2023-03-07T19:53:51.093Z,75630.16
2023-03-07T19:56:19.696Z,75644.34
2023-03-07T19:58:47.189Z,75636.22
2023-03-07T20:01:17.845Z,75636.22
2023-03-07T20:03:46.122Z,75624.06
2023-03-07T20:06:20.031Z,75630.16
2023-03-07T20:08:49.295Z,75636.22
2023-03-07T20:11:24.381Z,75644.34
2023-03-07T20:13:54.630Z,75628.13
2023-03-07T20:16:22.117Z,75632.19
2023-03-07T20:18:52.102Z,75632.19
2023-03-07T20:21:20.539Z,75628.13
2023-03-07T20:23:48.479Z,75630.16
2023-03-07T20:26:22.608Z,75611.91
2023-03-07T20:28:52.298Z,75611.91
2023-03-07T20:31:22.066Z,75615.97
2023-03-07T20:33:50.199Z,75611.91
2023-03-07T20:36:28.987Z,75620.03
2023-03-07T20:38:59.016Z,75615.97
2023-03-07T20:41:31.834Z,75615.97
2023-03-07T20:44:05.323Z,75611.91
2023-03-07T20:46:33.817Z,75620.03
2023-03-07T20:49:02.129Z,75626.09
2023-03-07T20:51:35.510Z,75632.19
2023-03-07T20:54:08.764Z,75615.97
2023-03-07T20:56:38.066Z,75624.06
2023-03-07T20:59:07.149Z,75636.22
2023-03-07T21:01:35.280Z,75642.31
2023-03-07T21:04:06.449Z,75636.22
2023-03-07T21:06:35.229Z,75644.34
2023-03-07T21:09:06.476Z,75644.34
2023-03-07T21:11:35.814Z,75648.41
2023-03-07T21:14:04.137Z,75652.44
2023-03-07T21:16:31.892Z,75644.34
2023-03-07T21:19:01.694Z,75652.44
2023-03-07T21:21:33.132Z,75652.44
2023-03-07T21:24:00.639Z,75652.44
2023-03-07T21:26:30.045Z,75656.50
2023-03-07T21:28:58.660Z,75640.28
2023-03-07T21:31:31.651Z,75654.47
2023-03-07T21:34:02.126Z,75662.59
2023-03-07T21:36:31.475Z,75656.50
2023-03-07T21:38:59.129Z,75680.81
2023-03-07T21:41:27.218Z,75660.56
2023-03-07T21:43:55.660Z,75652.44
2023-03-07T21:46:24.047Z,75660.56
2023-03-07T21:48:51.610Z,75668.66
2023-03-07T21:51:19.443Z,75656.50
2023-03-07T21:53:46.750Z,75664.59
2023-03-07T21:56:17.172Z,75680.81
2023-03-07T21:58:48.379Z,75656.50
2023-03-07T22:01:21.785Z,75660.56
2023-03-07T22:03:52.236Z,75672.72
2023-03-07T22:06:19.776Z,75664.59
2023-03-07T22:08:47.058Z,75662.59
2023-03-07T22:11:14.259Z,75672.72
2023-03-07T22:13:42.107Z,75672.72
2023-03-07T22:16:14.513Z,75668.66
2023-03-07T22:18:41.988Z,75668.66
2023-03-07T22:21:14.376Z,75680.81
2023-03-07T22:23:42.196Z,75697.03
2023-03-07T22:26:11.476Z,75721.34
2023-03-07T22:28:40.792Z,75733.50
2023-03-07T22:31:11.318Z,75782.16
2023-03-07T22:33:39.557Z,75820.66
2023-03-07T22:36:07.893Z,75840.91
2023-03-07T22:38:35.577Z,75871.31
2023-03-07T22:41:04.924Z,75907.81
2023-03-07T22:43:34.187Z,75926.03
2023-03-07T22:46:01.832Z,75956.44
2023-03-07T22:48:29.420Z,75976.72
2023-03-07T22:50:56.649Z,76005.09
2023-03-07T22:53:26.753Z,76041.56
2023-03-07T22:55:54.831Z,76069.94
2023-03-07T22:58:22.226Z,76090.22
2023-03-07T23:00:49.571Z,76098.31
2023-03-07T23:03:16.728Z,76106.41
2023-03-07T23:05:46.820Z,76122.63
2023-03-07T23:08:14.031Z,76132.78
2023-03-07T23:10:41.548Z,76163.19
2023-03-07T23:13:08.713Z,76179.38
2023-03-07T23:15:40.307Z,76199.66
2023-03-07T23:18:08.462Z,76211.81
2023-03-07T23:20:37.570Z,76223.97
2023-03-07T23:23:05.202Z,76228.03
2023-03-07T23:25:33.285Z,76223.97
2023-03-07T23:28:00.708Z,76213.84
2023-03-07T23:30:27.649Z,76240.19
2023-03-07T23:32:55.769Z,76248.31
2023-03-07T23:35:23.823Z,76244.25
2023-03-07T23:37:51.290Z,76236.16
2023-03-07T23:40:18.520Z,76236.16
2023-03-07T23:42:45.693Z,76244.25
2023-03-07T23:45:12.993Z,76244.25
2023-03-07T23:47:40.633Z,76248.31
2023-03-07T23:50:08.748Z,76244.25
2023-03-07T23:52:36.592Z,76252.34
2023-03-07T23:55:03.991Z,76248.31
2023-03-07T23:57:31.374Z,76254.38
2023-03-07T23:59:58.209Z,76262.50
